sensor_id;sensor_type;location;lat;lon;timestamp;temperature;humidity
14531;DHT22;7352;50.866;4.366;2023-08-06T02:32:37;17.00;99.90
14531;DHT22;7352;50.866;4.366;2023-08-06T02:38:39;17.10;99.90
14531;DHT22;7352;50.866;4.366;2023-08-06T02:41:45;17.00;99.90
14531;DHT22;7352;50.866;4.366;2023-08-06T02:44:19;17.00;99.90
14531;DHT22;7352;50.866;4.366;2023-08-06T02:46:50;17.00;99.90
14531;DHT22;7352;50.866;4.366;2023-08-06T02:49:34;16.90;99.90
14531;DHT22;7352;50.866;4.366;2023-08-06T02:52:55;17.00;99.90
14531;DHT22;7352;50.866;4.366;2023-08-06T02:58:57;17.10;99.90
14531;DHT22;7352;50.866;4.366;2023-08-06T03:01:36;17.10;99.90
14531;DHT22;7352;50.866;4.366;2023-08-06T03:18:26;17.10;99.90
14531;DHT22;7352;50.866;4.366;2023-08-06T03:21:33;17.20;99.90
14531;DHT22;7352;50.866;4.366;2023-08-06T03:24:36;17.10;99.90
14531;DHT22;7352;50.866;4.366;2023-08-06T03:27:36;17.10;99.90
14531;DHT22;7352;50.866;4.366;2023-08-06T03:33:31;17.20;99.90
14531;DHT22;7352;50.866;4.366;2023-08-06T03:36:43;17.20;99.90
14531;DHT22;7352;50.866;4.366;2023-08-06T03:39:21;17.00;99.90
14531;DHT22;7352;50.866;4.366;2023-08-06T03:41:52;17.20;99.90
14531;DHT22;7352;50.866;4.366;2023-08-06T03:44:54;17.20;99.90
14531;DHT22;7352;50.866;4.366;2023-08-06T03:48:01;17.10;99.90
14531;DHT22;7352;50.866;4.366;2023-08-06T03:51:06;17.10;99.90
14531;DHT22;7352;50.866;4.366;2023-08-06T03:53:43;17.20;99.90
14531;DHT22;7352;50.866;4.366;2023-08-06T03:56:35;17.10;99.90
14531;DHT22;7352;50.866;4.366;2023-08-06T03:59:50;17.20;99.90
14531;DHT22;7352;50.866;4.366;2023-08-06T04:02:37;17.20;99.90
14531;DHT22;7352;50.866;4.366;2023-08-06T04:05:20;17.20;99.90
14531;DHT22;7352;50.866;4.366;2023-08-06T04:25:26;16.20;99.90
14531;DHT22;7352;50.866;4.366;2023-08-06T04:28:08;16.10;99.90
14531;DHT22;7352;50.866;4.366;2023-08-06T04:31:00;16.10;99.90
14531;DHT22;7352;50.866;4.366;2023-08-06T04:33:47;16.00;99.90
14531;DHT22;7352;50.866;4.366;2023-08-06T04:36:32;15.90;99.90
14531;DHT22;7352;50.866;4.366;2023-08-06T04:39:21;15.60;99.90
14531;DHT22;7352;50.866;4.366;2023-08-06T04:42:02;15.50;99.90
14531;DHT22;7352;50.866;4.366;2023-08-06T04:45:12;15.60;99.90
14531;DHT22;7352;50.866;4.366;2023-08-06T04:48:01;15.50;99.90
14531;DHT22;7352;50.866;4.366;2023-08-06T04:50:41;15.40;99.90
14531;DHT22;7352;50.866;4.366;2023-08-06T04:53:45;15.30;99.90
14531;DHT22;7352;50.866;4.366;2023-08-06T04:56:27;15.40;99.90
14531;DHT22;7352;50.866;4.366;2023-08-06T04:59:34;15.50;99.90
14531;DHT22;7352;50.866;4.366;2023-08-06T05:02:41;15.40;99.90
14531;DHT22;7352;50.866;4.366;2023-08-06T05:05:24;15.40;99.90
14531;DHT22;7352;50.866;4.366;2023-08-06T05:08:07;15.50;99.90
14531;DHT22;7352;50.866;4.366;2023-08-06T05:10:34;15.50;99.90
14531;DHT22;7352;50.866;4.366;2023-08-06T05:13:04;15.50;99.90
14531;DHT22;7352;50.866;4.366;2023-08-06T05:15:33;15.50;99.90
14531;DHT22;7352;50.866;4.366;2023-08-06T05:18:05;15.40;99.90
14531;DHT22;7352;50.866;4.366;2023-08-06T05:20:39;15.50;99.90
14531;DHT22;7352;50.866;4.366;2023-08-06T05:23:14;15.60;99.90
14531;DHT22;7352;50.866;4.366;2023-08-06T05:25:55;15.70;99.90
14531;DHT22;7352;50.866;4.366;2023-08-06T05:28:23;15.70;99.90
14531;DHT22;7352;50.866;4.366;2023-08-06T05:31:07;15.70;99.90
14531;DHT22;7352;50.866;4.366;2023-08-06T05:33:59;15.70;99.90
14531;DHT22;7352;50.866;4.366;2023-08-06T05:36:38;15.60;99.90
14531;DHT22;7352;50.866;4.366;2023-08-06T05:39:19;15.70;99.90
14531;DHT22;7352;50.866;4.366;2023-08-06T05:41:46;15.70;99.90
14531;DHT22;7352;50.866;4.366;2023-08-06T05:44:46;15.70;99.90
14531;DHT22;7352;50.866;4.366;2023-08-06T05:47:15;15.70;99.90
14531;DHT22;7352;50.866;4.366;2023-08-06T05:50:01;15.70;99.90
14531;DHT22;7352;50.866;4.366;2023-08-06T05:53:09;15.90;99.90
14531;DHT22;7352;50.866;4.366;2023-08-06T05:55:55;15.80;99.90
14531;DHT22;7352;50.866;4.366;2023-08-06T05:58:41;15.60;99.90
14531;DHT22;7352;50.866;4.366;2023-08-06T06:01:28;15.60;99.90
14531;DHT22;7352;50.866;4.366;2023-08-06T06:04:04;15.60;99.90
14531;DHT22;7352;50.866;4.366;2023-08-06T06:06:35;15.70;99.90
14531;DHT22;7352;50.866;4.366;2023-08-06T06:09:03;15.60;99.90
14531;DHT22;7352;50.866;4.366;2023-08-06T06:12:09;15.60;99.90
14531;DHT22;7352;50.866;4.366;2023-08-06T06:18:11;15.60;99.90
14531;DHT22;7352;50.866;4.366;2023-08-06T06:20:48;15.70;99.90
14531;DHT22;7352;50.866;4.366;2023-08-06T06:23:20;15.70;99.90
14531;DHT22;7352;50.866;4.366;2023-08-06T06:26:07;15.70;99.90
14531;DHT22;7352;50.866;4.366;2023-08-06T06:28:35;15.80;99.90
14531;DHT22;7352;50.866;4.366;2023-08-06T06:31:36;15.90;99.90
14531;DHT22;7352;50.866;4.366;2023-08-06T06:34:05;16.00;99.90
14531;DHT22;7352;50.866;4.366;2023-08-06T06:36:34;16.00;99.90
14531;DHT22;7352;50.866;4.366;2023-08-06T06:39:12;15.90;99.90
14531;DHT22;7352;50.866;4.366;2023-08-06T06:41:57;16.00;99.90
14531;DHT22;7352;50.866;4.366;2023-08-06T06:44:56;16.10;99.90
14531;DHT22;7352;50.866;4.366;2023-08-06T06:47:27;16.10;99.90
14531;DHT22;7352;50.866;4.366;2023-08-06T06:50:00;16.00;99.90
14531;DHT22;7352;50.866;4.366;2023-08-06T06:52:44;16.10;99.90
14531;DHT22;7352;50.866;4.366;2023-08-06T06:58:48;16.30;99.90
14531;DHT22;7352;50.866;4.366;2023-08-06T07:01:32;16.30;99.90
14531;DHT22;7352;50.866;4.366;2023-08-06T07:04:09;16.30;99.90
14531;DHT22;7352;50.866;4.366;2023-08-06T07:06:45;16.20;99.90
14531;DHT22;7352;50.866;4.366;2023-08-06T07:09:33;16.10;99.90
14531;DHT22;7352;50.866;4.366;2023-08-06T07:12:22;16.20;99.90
14531;DHT22;7352;50.866;4.366;2023-08-06T07:15:05;16.30;99.90
14531;DHT22;7352;50.866;4.366;2023-08-06T07:17:35;16.40;99.90
14531;DHT22;7352;50.866;4.366;2023-08-06T07:20:02;16.30;99.90
14531;DHT22;7352;50.866;4.366;2023-08-06T07:22:31;16.30;99.90
14531;DHT22;7352;50.866;4.366;2023-08-06T07:25:07;16.30;99.90
14531;DHT22;7352;50.866;4.366;2023-08-06T07:27:49;16.10;99.90
14531;DHT22;7352;50.866;4.366;2023-08-06T07:30:17;16.20;99.90
14531;DHT22;7352;50.866;4.366;2023-08-06T07:32:57;16.00;99.90
14531;DHT22;7352;50.866;4.366;2023-08-06T07:35:31;16.10;99.90
14531;DHT22;7352;50.866;4.366;2023-08-06T07:38:12;16.20;99.90
14531;DHT22;7352;50.866;4.366;2023-08-06T07:40:41;16.30;99.90
14531;DHT22;7352;50.866;4.366;2023-08-06T07:43:09;16.50;99.90
14531;DHT22;7352;50.866;4.366;2023-08-06T07:45:39;16.40;99.90
14531;DHT22;7352;50.866;4.366;2023-08-06T07:48:33;16.50;99.90
14531;DHT22;7352;50.866;4.366;2023-08-06T07:54:54;16.60;99.90
14531;DHT22;7352;50.866;4.366;2023-08-06T08:07:16;16.80;99.90
14531;DHT22;7352;50.866;4.366;2023-08-06T08:09:49;16.90;99.90
14531;DHT22;7352;50.866;4.366;2023-08-06T08:12:19;17.00;99.90
14531;DHT22;7352;50.866;4.366;2023-08-06T08:14:56;17.20;99.90
14531;DHT22;7352;50.866;4.366;2023-08-06T08:17:24;17.20;99.90
14531;DHT22;7352;50.866;4.366;2023-08-06T08:19:52;17.20;99.90
14531;DHT22;7352;50.866;4.366;2023-08-06T08:22:22;17.10;99.90
14531;DHT22;7352;50.866;4.366;2023-08-06T08:24:57;17.00;99.90
14531;DHT22;7352;50.866;4.366;2023-08-06T08:27:24;16.80;99.90
14531;DHT22;7352;50.866;4.366;2023-08-06T08:29:53;16.60;99.90
14531;DHT22;7352;50.866;4.366;2023-08-06T08:32:20;16.40;99.90
14531;DHT22;7352;50.866;4.366;2023-08-06T08:34:47;16.50;99.90
14531;DHT22;7352;50.866;4.366;2023-08-06T08:37:24;16.30;99.90
14531;DHT22;7352;50.866;4.366;2023-08-06T08:39:53;16.30;99.90
14531;DHT22;7352;50.866;4.366;2023-08-06T08:42:21;16.20;99.90
14531;DHT22;7352;50.866;4.366;2023-08-06T08:44:48;16.40;99.90
14531;DHT22;7352;50.866;4.366;2023-08-06T08:47:17;16.50;99.90
14531;DHT22;7352;50.866;4.366;2023-08-06T08:49:46;16.60;99.90
14531;DHT22;7352;50.866;4.366;2023-08-06T08:52:15;16.70;99.90
14531;DHT22;7352;50.866;4.366;2023-08-06T08:54:46;16.80;99.90
14531;DHT22;7352;50.866;4.366;2023-08-06T08:57:17;17.10;99.90
14531;DHT22;7352;50.866;4.366;2023-08-06T08:59:48;17.10;99.90
14531;DHT22;7352;50.866;4.366;2023-08-06T09:02:18;17.00;99.90
14531;DHT22;7352;50.866;4.366;2023-08-06T09:04:48;17.00;99.90
14531;DHT22;7352;50.866;4.366;2023-08-06T09:07:18;16.90;99.90
14531;DHT22;7352;50.866;4.366;2023-08-06T09:10:18;16.90;99.90
14531;DHT22;7352;50.866;4.366;2023-08-06T09:12:50;17.00;99.90
14531;DHT22;7352;50.866;4.366;2023-08-06T09:15:20;17.00;99.90
14531;DHT22;7352;50.866;4.366;2023-08-06T09:17:53;17.10;99.90
14531;DHT22;7352;50.866;4.366;2023-08-06T09:20:24;17.00;99.90
14531;DHT22;7352;50.866;4.366;2023-08-06T09:22:55;16.90;99.90
14531;DHT22;7352;50.866;4.366;2023-08-06T09:25:39;16.90;99.90
14531;DHT22;7352;50.866;4.366;2023-08-06T09:28:07;16.60;99.90
14531;DHT22;7352;50.866;4.366;2023-08-06T09:30:43;16.50;99.90
14531;DHT22;7352;50.866;4.366;2023-08-06T09:33:22;16.30;99.90
14531;DHT22;7352;50.866;4.366;2023-08-06T09:36:16;16.40;99.90
14531;DHT22;7352;50.866;4.366;2023-08-06T09:38:46;16.30;99.90
14531;DHT22;7352;50.866;4.366;2023-08-06T09:41:57;16.20;99.90
14531;DHT22;7352;50.866;4.366;2023-08-06T09:44:43;16.40;99.90
14531;DHT22;7352;50.866;4.366;2023-08-06T09:47:16;16.30;99.90
14531;DHT22;7352;50.866;4.366;2023-08-06T09:54:33;16.00;99.90
14531;DHT22;7352;50.866;4.366;2023-08-06T09:57:09;16.00;99.90
14531;DHT22;7352;50.866;4.366;2023-08-06T10:00:23;16.10;99.90
14531;DHT22;7352;50.866;4.366;2023-08-06T10:03:22;16.20;99.90
14531;DHT22;7352;50.866;4.366;2023-08-06T10:05:51;16.20;99.90
14531;DHT22;7352;50.866;4.366;2023-08-06T10:08:24;16.20;99.90
14531;DHT22;7352;50.866;4.366;2023-08-06T10:14:23;16.30;99.90
14531;DHT22;7352;50.866;4.366;2023-08-06T10:16:59;16.30;99.90
14531;DHT22;7352;50.866;4.366;2023-08-06T10:19:42;16.30;99.90
14531;DHT22;7352;50.866;4.366;2023-08-06T10:26:07;16.20;99.90
14531;DHT22;7352;50.866;4.366;2023-08-06T10:28:59;16.30;99.90
14531;DHT22;7352;50.866;4.366;2023-08-06T10:32:04;16.10;99.90
14531;DHT22;7352;50.866;4.366;2023-08-06T10:35:43;16.20;99.90
14531;DHT22;7352;50.866;4.366;2023-08-06T10:38:08;16.20;99.90
14531;DHT22;7352;50.866;4.366;2023-08-06T10:42:11;16.10;99.90
14531;DHT22;7352;50.866;4.366;2023-08-06T10:44:14;15.90;99.90
14531;DHT22;7352;50.866;4.366;2023-08-06T10:47:28;16.00;99.90
14531;DHT22;7352;50.866;4.366;2023-08-06T10:49:57;16.30;99.90
14531;DHT22;7352;50.866;4.366;2023-08-06T10:52:29;16.30;99.90
14531;DHT22;7352;50.866;4.366;2023-08-06T10:54:58;16.40;99.90
14531;DHT22;7352;50.866;4.366;2023-08-06T10:57:30;16.50;99.90
14531;DHT22;7352;50.866;4.366;2023-08-06T11:00:01;16.40;99.90
14531;DHT22;7352;50.866;4.366;2023-08-06T11:02:36;16.30;99.90
14531;DHT22;7352;50.866;4.366;2023-08-06T11:05:07;16.30;99.90
14531;DHT22;7352;50.866;4.366;2023-08-06T11:07:35;16.30;99.90
14531;DHT22;7352;50.866;4.366;2023-08-06T11:10:03;16.40;99.90
14531;DHT22;7352;50.866;4.366;2023-08-06T11:12:31;16.30;99.90
14531;DHT22;7352;50.866;4.366;2023-08-06T11:15:02;16.50;99.90
14531;DHT22;7352;50.866;4.366;2023-08-06T11:17:33;16.50;99.90
14531;DHT22;7352;50.866;4.366;2023-08-06T11:20:07;16.50;99.90
14531;DHT22;7352;50.866;4.366;2023-08-06T11:22:55;16.50;99.90
14531;DHT22;7352;50.866;4.366;2023-08-06T11:28:47;16.70;99.90
14531;DHT22;7352;50.866;4.366;2023-08-06T11:31:36;16.70;99.90
14531;DHT22;7352;50.866;4.366;2023-08-06T11:34:06;16.40;99.90
14531;DHT22;7352;50.866;4.366;2023-08-06T11:36:52;16.20;99.90
14531;DHT22;7352;50.866;4.366;2023-08-06T11:39:29;16.30;99.90
14531;DHT22;7352;50.866;4.366;2023-08-06T11:44:49;16.40;99.90
14531;DHT22;7352;50.866;4.366;2023-08-06T11:47:20;16.20;99.90
14531;DHT22;7352;50.866;4.366;2023-08-06T11:49:49;16.10;99.90
14531;DHT22;7352;50.866;4.366;2023-08-06T11:52:38;16.00;99.90
14531;DHT22;7352;50.866;4.366;2023-08-06T11:55:08;16.00;99.90
14531;DHT22;7352;50.866;4.366;2023-08-06T11:57:46;16.00;99.90
14531;DHT22;7352;50.866;4.366;2023-08-06T12:00:14;16.00;99.90
14531;DHT22;7352;50.866;4.366;2023-08-06T12:02:43;16.10;99.90
14531;DHT22;7352;50.866;4.366;2023-08-06T12:05:13;16.10;99.90
14531;DHT22;7352;50.866;4.366;2023-08-06T12:07:51;16.00;99.90
14531;DHT22;7352;50.866;4.366;2023-08-06T12:10:19;16.10;99.90
14531;DHT22;7352;50.866;4.366;2023-08-06T12:12:47;16.10;99.90
14531;DHT22;7352;50.866;4.366;2023-08-06T12:15:16;16.30;99.90
14531;DHT22;7352;50.866;4.366;2023-08-06T12:17:43;16.50;99.90
14531;DHT22;7352;50.866;4.366;2023-08-06T12:20:12;16.80;99.90
14531;DHT22;7352;50.866;4.366;2023-08-06T12:22:40;16.90;99.90
14531;DHT22;7352;50.866;4.366;2023-08-06T12:25:20;16.90;99.90
14531;DHT22;7352;50.866;4.366;2023-08-06T12:27:51;16.90;99.90
14531;DHT22;7352;50.866;4.366;2023-08-06T12:30:18;16.80;99.90
14531;DHT22;7352;50.866;4.366;2023-08-06T12:32:46;17.00;99.90
14531;DHT22;7352;50.866;4.366;2023-08-06T12:35:15;17.20;99.90
14531;DHT22;7352;50.866;4.366;2023-08-06T12:37:42;17.20;99.90
14531;DHT22;7352;50.866;4.366;2023-08-06T12:40:26;17.00;99.90
14531;DHT22;7352;50.866;4.366;2023-08-06T12:42:53;16.70;99.90
14531;DHT22;7352;50.866;4.366;2023-08-06T12:45:31;16.60;99.90
14531;DHT22;7352;50.866;4.366;2023-08-06T12:47:59;16.50;99.90
14531;DHT22;7352;50.866;4.366;2023-08-06T12:50:28;16.50;99.90
14531;DHT22;7352;50.866;4.366;2023-08-06T12:52:58;16.60;99.90
14531;DHT22;7352;50.866;4.366;2023-08-06T12:55:25;16.80;99.90
14531;DHT22;7352;50.866;4.366;2023-08-06T12:57:54;17.00;99.90
14531;DHT22;7352;50.866;4.366;2023-08-06T13:00:23;17.00;99.90
14531;DHT22;7352;50.866;4.366;2023-08-06T13:02:51;16.90;99.90
14531;DHT22;7352;50.866;4.366;2023-08-06T13:05:18;16.90;99.90
14531;DHT22;7352;50.866;4.366;2023-08-06T13:08:04;16.70;99.90
14531;DHT22;7352;50.866;4.366;2023-08-06T13:10:53;16.70;99.90
14531;DHT22;7352;50.866;4.366;2023-08-06T13:13:23;16.70;99.90
14531;DHT22;7352;50.866;4.366;2023-08-06T13:16:04;16.70;99.90
14531;DHT22;7352;50.866;4.366;2023-08-06T13:18:32;16.60;99.90
14531;DHT22;7352;50.866;4.366;2023-08-06T13:21:02;16.60;99.90
14531;DHT22;7352;50.866;4.366;2023-08-06T13:23:38;16.50;99.90
14531;DHT22;7352;50.866;4.366;2023-08-06T13:26:05;16.50;99.90
14531;DHT22;7352;50.866;4.366;2023-08-06T13:28:33;16.40;99.90
14531;DHT22;7352;50.866;4.366;2023-08-06T13:31:05;16.40;99.90
14531;DHT22;7352;50.866;4.366;2023-08-06T13:33:35;16.40;99.90
14531;DHT22;7352;50.866;4.366;2023-08-06T13:36:07;16.20;99.90
14531;DHT22;7352;50.866;4.366;2023-08-06T13:38:41;16.10;99.90
14531;DHT22;7352;50.866;4.366;2023-08-06T13:41:12;16.00;99.90
14531;DHT22;7352;50.866;4.366;2023-08-06T13:43:39;16.00;99.90
14531;DHT22;7352;50.866;4.366;2023-08-06T13:46:09;16.00;99.90
14531;DHT22;7352;50.866;4.366;2023-08-06T13:48:40;16.10;99.90
14531;DHT22;7352;50.866;4.366;2023-08-06T13:51:07;16.10;99.90
14531;DHT22;7352;50.866;4.366;2023-08-06T13:53:35;16.00;99.90
14531;DHT22;7352;50.866;4.366;2023-08-06T13:56:15;15.80;99.90
14531;DHT22;7352;50.866;4.366;2023-08-06T13:58:43;15.90;99.90
14531;DHT22;7352;50.866;4.366;2023-08-06T14:01:11;15.80;99.90
14531;DHT22;7352;50.866;4.366;2023-08-06T14:03:38;15.70;99.90
14531;DHT22;7352;50.866;4.366;2023-08-06T14:06:06;15.70;99.90
14531;DHT22;7352;50.866;4.366;2023-08-06T14:08:53;15.80;99.90
14531;DHT22;7352;50.866;4.366;2023-08-06T14:11:39;15.90;99.90
14531;DHT22;7352;50.866;4.366;2023-08-06T14:14:09;15.90;99.90
14531;DHT22;7352;50.866;4.366;2023-08-06T14:20:06;16.00;99.90
14531;DHT22;7352;50.866;4.366;2023-08-06T14:23:02;16.10;99.90
14531;DHT22;7352;50.866;4.366;2023-08-06T14:25:40;16.10;99.90
14531;DHT22;7352;50.866;4.366;2023-08-06T14:31:44;16.00;99.90
14531;DHT22;7352;50.866;4.366;2023-08-06T14:35:01;15.80;99.90
14531;DHT22;7352;50.866;4.366;2023-08-06T14:37:44;15.80;99.90
14531;DHT22;7352;50.866;4.366;2023-08-06T14:40:35;15.90;99.90
14531;DHT22;7352;50.866;4.366;2023-08-06T14:43:10;15.90;99.90
14531;DHT22;7352;50.866;4.366;2023-08-06T14:45:49;16.00;99.90
14531;DHT22;7352;50.866;4.366;2023-08-06T14:51:45;16.20;99.90
14531;DHT22;7352;50.866;4.366;2023-08-06T14:54:27;16.20;99.90
14531;DHT22;7352;50.866;4.366;2023-08-06T14:56:58;16.40;99.90
14531;DHT22;7352;50.866;4.366;2023-08-06T14:59:37;16.30;99.90
14531;DHT22;7352;50.866;4.366;2023-08-06T15:02:15;16.30;99.90
14531;DHT22;7352;50.866;4.366;2023-08-06T15:04:58;16.30;99.90
14531;DHT22;7352;50.866;4.366;2023-08-06T15:07:26;16.30;99.90
14531;DHT22;7352;50.866;4.366;2023-08-06T15:10:32;16.30;99.90
14531;DHT22;7352;50.866;4.366;2023-08-06T15:13:29;16.40;99.90
14531;DHT22;7352;50.866;4.366;2023-08-06T15:18:59;16.20;99.90
14531;DHT22;7352;50.866;4.366;2023-08-06T15:21:28;16.30;99.90
14531;DHT22;7352;50.866;4.366;2023-08-06T15:23:55;16.10;99.90
14531;DHT22;7352;50.866;4.366;2023-08-06T15:26:36;15.60;99.90
14531;DHT22;7352;50.866;4.366;2023-08-06T15:29:04;15.30;99.90
14531;DHT22;7352;50.866;4.366;2023-08-06T15:31:36;15.30;99.90
14531;DHT22;7352;50.866;4.366;2023-08-06T15:34:06;15.50;99.90
14531;DHT22;7352;50.866;4.366;2023-08-06T15:36:34;15.80;99.90
14531;DHT22;7352;50.866;4.366;2023-08-06T15:39:08;15.90;99.90
14531;DHT22;7352;50.866;4.366;2023-08-06T15:41:39;16.20;99.90
14531;DHT22;7352;50.866;4.366;2023-08-06T15:44:11;16.60;99.90
14531;DHT22;7352;50.866;4.366;2023-08-06T15:47:03;17.10;99.90
14531;DHT22;7352;50.866;4.366;2023-08-06T15:49:54;17.60;99.90
14531;DHT22;7352;50.866;4.366;2023-08-06T16:02:07;17.40;99.90
14531;DHT22;7352;50.866;4.366;2023-08-06T16:04:46;17.40;99.90
14531;DHT22;7352;50.866;4.366;2023-08-06T16:07:27;17.30;99.90
14531;DHT22;7352;50.866;4.366;2023-08-06T16:10:11;18.00;99.90
14531;DHT22;7352;50.866;4.366;2023-08-06T16:12:45;18.70;99.90
14531;DHT22;7352;50.866;4.366;2023-08-06T16:15:27;19.10;99.90
14531;DHT22;7352;50.866;4.366;2023-08-06T16:21:35;18.90;99.90
14531;DHT22;7352;50.866;4.366;2023-08-06T16:24:08;18.60;99.90
14531;DHT22;7352;50.866;4.366;2023-08-06T16:26:59;18.90;99.90
14531;DHT22;7352;50.866;4.366;2023-08-06T16:29:49;19.90;99.90
14531;DHT22;7352;50.866;4.366;2023-08-06T17:57:38;18.20;99.90
14531;DHT22;7352;50.866;4.366;2023-08-06T18:00:10;18.00;99.90
14531;DHT22;7352;50.866;4.366;2023-08-06T18:06:33;17.90;99.90
14531;DHT22;7352;50.866;4.366;2023-08-06T18:09:01;18.00;99.90
14531;DHT22;7352;50.866;4.366;2023-08-06T18:11:29;18.10;99.90
14531;DHT22;7352;50.866;4.366;2023-08-06T18:13:56;17.90;99.90
14531;DHT22;7352;50.866;4.366;2023-08-06T18:16:26;17.90;99.90
14531;DHT22;7352;50.866;4.366;2023-08-06T18:18:54;18.00;99.90
14531;DHT22;7352;50.866;4.366;2023-08-06T18:21:25;17.90;99.90
14531;DHT22;7352;50.866;4.366;2023-08-06T18:23:52;18.00;99.90
14531;DHT22;7352;50.866;4.366;2023-08-06T18:26:19;18.10;99.90
14531;DHT22;7352;50.866;4.366;2023-08-06T18:28:47;18.20;99.90
14531;DHT22;7352;50.866;4.366;2023-08-06T18:31:14;18.20;99.90
14531;DHT22;7352;50.866;4.366;2023-08-06T18:33:45;17.90;99.90
14531;DHT22;7352;50.866;4.366;2023-08-06T18:36:12;17.80;99.90
14531;DHT22;7352;50.866;4.366;2023-08-06T18:38:40;17.70;99.90
14531;DHT22;7352;50.866;4.366;2023-08-06T18:41:08;17.60;99.90
14531;DHT22;7352;50.866;4.366;2023-08-06T18:43:35;17.50;99.90
14531;DHT22;7352;50.866;4.366;2023-08-06T18:46:03;17.40;99.90
14531;DHT22;7352;50.866;4.366;2023-08-06T18:48:30;17.40;99.90
14531;DHT22;7352;50.866;4.366;2023-08-06T18:50:58;17.50;99.90
14531;DHT22;7352;50.866;4.366;2023-08-06T18:53:25;17.20;99.90
14531;DHT22;7352;50.866;4.366;2023-08-06T18:55:53;17.20;99.90
14531;DHT22;7352;50.866;4.366;2023-08-06T18:58:20;17.10;99.90
14531;DHT22;7352;50.866;4.366;2023-08-06T19:00:47;17.10;99.90
14531;DHT22;7352;50.866;4.366;2023-08-06T19:03:14;17.00;99.90
14531;DHT22;7352;50.866;4.366;2023-08-06T19:05:42;17.00;99.90
14531;DHT22;7352;50.866;4.366;2023-08-06T19:08:09;16.80;99.90
14531;DHT22;7352;50.866;4.366;2023-08-06T19:10:37;16.80;99.90
14531;DHT22;7352;50.866;4.366;2023-08-06T19:13:09;16.80;99.90
14531;DHT22;7352;50.866;4.366;2023-08-06T19:15:37;16.80;99.90
14531;DHT22;7352;50.866;4.366;2023-08-06T19:18:06;16.60;99.90
14531;DHT22;7352;50.866;4.366;2023-08-06T19:20:40;16.60;99.90
14531;DHT22;7352;50.866;4.366;2023-08-06T19:23:08;16.60;99.90
14531;DHT22;7352;50.866;4.366;2023-08-06T19:25:40;16.60;99.90
14531;DHT22;7352;50.866;4.366;2023-08-06T19:28:10;16.60;99.90
14531;DHT22;7352;50.866;4.366;2023-08-06T19:30:38;16.70;99.90
14531;DHT22;7352;50.866;4.366;2023-08-06T19:33:08;16.50;99.90
14531;DHT22;7352;50.866;4.366;2023-08-06T19:35:46;16.60;99.90
14531;DHT22;7352;50.866;4.366;2023-08-06T19:38:15;16.60;99.90
14531;DHT22;7352;50.866;4.366;2023-08-06T19:40:42;16.50;99.90
14531;DHT22;7352;50.866;4.366;2023-08-06T19:43:12;16.50;99.90
14531;DHT22;7352;50.866;4.366;2023-08-06T19:45:39;16.50;99.90
14531;DHT22;7352;50.866;4.366;2023-08-06T19:48:06;16.70;99.90
14531;DHT22;7352;50.866;4.366;2023-08-06T19:50:34;16.60;99.90
14531;DHT22;7352;50.866;4.366;2023-08-06T19:53:01;16.60;99.90
14531;DHT22;7352;50.866;4.366;2023-08-06T19:55:28;16.50;99.90
14531;DHT22;7352;50.866;4.366;2023-08-06T19:57:55;16.70;99.90
14531;DHT22;7352;50.866;4.366;2023-08-06T20:00:24;16.60;99.90
14531;DHT22;7352;50.866;4.366;2023-08-06T20:02:51;16.50;99.90
14531;DHT22;7352;50.866;4.366;2023-08-06T20:05:18;16.30;99.90
14531;DHT22;7352;50.866;4.366;2023-08-06T20:07:46;16.30;99.90
14531;DHT22;7352;50.866;4.366;2023-08-06T20:10:13;16.30;99.90
14531;DHT22;7352;50.866;4.366;2023-08-06T20:12:40;16.30;99.90
14531;DHT22;7352;50.866;4.366;2023-08-06T20:15:16;16.30;99.90
14531;DHT22;7352;50.866;4.366;2023-08-06T20:17:46;16.20;99.90
14531;DHT22;7352;50.866;4.366;2023-08-06T20:20:13;16.20;99.90
14531;DHT22;7352;50.866;4.366;2023-08-06T20:22:41;16.30;99.90
14531;DHT22;7352;50.866;4.366;2023-08-06T20:25:09;16.30;99.90
14531;DHT22;7352;50.866;4.366;2023-08-06T20:27:37;16.10;99.90
14531;DHT22;7352;50.866;4.366;2023-08-06T20:30:07;16.10;99.90
14531;DHT22;7352;50.866;4.366;2023-08-06T20:32:34;16.00;99.90
14531;DHT22;7352;50.866;4.366;2023-08-06T20:35:03;16.10;99.90
14531;DHT22;7352;50.866;4.366;2023-08-06T20:37:30;16.10;99.90
14531;DHT22;7352;50.866;4.366;2023-08-06T20:39:58;16.20;99.90
14531;DHT22;7352;50.866;4.366;2023-08-06T20:42:25;16.20;99.90
14531;DHT22;7352;50.866;4.366;2023-08-06T20:44:52;16.10;99.90
14531;DHT22;7352;50.866;4.366;2023-08-06T20:47:19;16.10;99.90
14531;DHT22;7352;50.866;4.366;2023-08-06T20:49:46;15.90;99.90
14531;DHT22;7352;50.866;4.366;2023-08-06T20:52:16;15.80;99.90
14531;DHT22;7352;50.866;4.366;2023-08-06T20:55:01;15.80;99.90
14531;DHT22;7352;50.866;4.366;2023-08-06T20:57:28;15.90;99.90
14531;DHT22;7352;50.866;4.366;2023-08-06T20:59:55;16.10;99.90
14531;DHT22;7352;50.866;4.366;2023-08-06T21:02:24;16.20;99.90
14531;DHT22;7352;50.866;4.366;2023-08-06T21:04:51;16.10;99.90
14531;DHT22;7352;50.866;4.366;2023-08-06T21:07:20;16.00;99.90
14531;DHT22;7352;50.866;4.366;2023-08-06T21:09:47;15.80;99.90
14531;DHT22;7352;50.866;4.366;2023-08-06T21:12:14;15.70;99.90
14531;DHT22;7352;50.866;4.366;2023-08-06T21:14:42;15.80;99.90
14531;DHT22;7352;50.866;4.366;2023-08-06T21:17:14;15.60;99.90
14531;DHT22;7352;50.866;4.366;2023-08-06T21:19:41;15.80;99.90
14531;DHT22;7352;50.866;4.366;2023-08-06T21:22:08;15.70;99.90
14531;DHT22;7352;50.866;4.366;2023-08-06T21:24:37;15.60;99.90
14531;DHT22;7352;50.866;4.366;2023-08-06T21:27:05;15.60;99.90
14531;DHT22;7352;50.866;4.366;2023-08-06T21:29:32;15.70;99.90
14531;DHT22;7352;50.866;4.366;2023-08-06T21:34:44;15.50;99.90
14531;DHT22;7352;50.866;4.366;2023-08-06T21:37:16;15.40;99.90
14531;DHT22;7352;50.866;4.366;2023-08-06T21:39:49;15.50;99.90
14531;DHT22;7352;50.866;4.366;2023-08-06T21:42:16;15.50;99.90
14531;DHT22;7352;50.866;4.366;2023-08-06T21:44:43;15.40;99.90
14531;DHT22;7352;50.866;4.366;2023-08-06T21:47:10;15.40;99.90
14531;DHT22;7352;50.866;4.366;2023-08-06T21:49:38;15.40;99.90
14531;DHT22;7352;50.866;4.366;2023-08-06T21:52:06;15.40;99.90
14531;DHT22;7352;50.866;4.366;2023-08-06T21:54:33;15.40;99.90
14531;DHT22;7352;50.866;4.366;2023-08-06T21:57:04;15.20;99.90
14531;DHT22;7352;50.866;4.366;2023-08-06T21:59:32;15.30;99.90
14531;DHT22;7352;50.866;4.366;2023-08-06T22:01:59;15.30;99.90
14531;DHT22;7352;50.866;4.366;2023-08-06T22:04:27;15.30;99.90
14531;DHT22;7352;50.866;4.366;2023-08-06T22:06:55;15.30;99.90
14531;DHT22;7352;50.866;4.366;2023-08-06T22:09:22;15.30;99.90
14531;DHT22;7352;50.866;4.366;2023-08-06T22:11:50;15.30;99.90
14531;DHT22;7352;50.866;4.366;2023-08-06T22:14:18;15.20;99.90
14531;DHT22;7352;50.866;4.366;2023-08-06T22:16:45;15.30;99.90
14531;DHT22;7352;50.866;4.366;2023-08-06T22:19:13;15.30;99.90
14531;DHT22;7352;50.866;4.366;2023-08-06T22:21:41;15.20;99.90
14531;DHT22;7352;50.866;4.366;2023-08-06T22:24:08;15.20;99.90
14531;DHT22;7352;50.866;4.366;2023-08-06T22:26:36;15.00;99.90
14531;DHT22;7352;50.866;4.366;2023-08-06T22:29:04;15.20;99.90